Time;durP1;ratioP1;P1;durP2;ratioP2;P2;SDS_P1;SDS_P2;PMS_P1;PMS_P2;Temp;Humidity;BMP_temperature;BMP_pressure;BME280_temperature;BME280_humidity;BME280_pressure;Samples;Min_cycle;Max_cycle;Signal;HPM_P1;HPM_P2
2024/03/24 00:01:07;;;;;;;6.22;2.65;;;4.80;99.90;;;;;;6146888;23;20001;-80
2024/03/24 00:03:35;;;;;;;8.05;3.08;;;4.90;99.90;;;;;;6163846;23;20059;-79
2024/03/24 00:06:02;;;;;;;9.02;2.83;;;4.90;99.90;;;;;;6146881;23;20012;-79
2024/03/24 00:08:30;;;;;;;7.15;2.78;;;4.90;99.90;;;;;;6112554;23;20009;-77
2024/03/24 00:10:57;;;;;;;4.40;2.17;;;4.90;99.90;;;;;;6147135;23;20021;-78
2024/03/24 00:13:25;;;;;;;9.18;2.72;;;5.00;99.90;;;;;;6113501;23;20017;-80
2024/03/24 00:15:54;;;;;;;7.32;3.08;;;5.00;99.90;;;;;;6136586;23;20005;-79
2024/03/24 00:18:20;;;;;;;6.32;2.55;;;5.00;99.90;;;;;;6110485;23;20437;-78
2024/03/24 00:20:47;;;;;;;6.75;2.85;;;5.10;99.90;;;;;;6109404;23;20012;-79
2024/03/24 00:23:13;;;;;;;5.68;3.08;;;5.20;99.90;;;;;;6110082;23;20009;-79
2024/03/24 00:25:39;;;;;;;10.30;3.35;;;5.10;99.90;;;;;;6110152;23;20013;-81
2024/03/24 00:28:06;;;;;;;7.07;2.78;;;5.20;99.90;;;;;;6107165;23;20009;-80
2024/03/24 00:30:32;;;;;;;5.00;3.45;;;5.20;99.90;;;;;;6085454;23;20005;-79
2024/03/24 00:32:59;;;;;;;8.88;2.95;;;5.20;99.90;;;;;;6108899;23;20017;-78
2024/03/24 00:35:25;;;;;;;11.70;3.95;;;5.30;99.90;;;;;;6171619;23;20016;-79
2024/03/24 00:37:52;;;;;;;6.18;3.28;;;5.40;99.90;;;;;;6147752;23;20175;-80
2024/03/24 00:40:18;;;;;;;10.45;4.00;;;5.40;99.90;;;;;;6088536;23;20027;-79
2024/03/24 00:42:45;;;;;;;8.88;3.10;;;5.40;99.90;;;;;;6114033;23;20009;-78
2024/03/24 00:45:11;;;;;;;8.70;3.42;;;5.40;99.90;;;;;;6149285;23;20012;-78
2024/03/24 00:47:37;;;;;;;9.55;3.50;;;5.40;99.90;;;;;;6112597;23;20552;-78
2024/03/24 00:50:04;;;;;;;7.63;4.13;;;5.50;99.90;;;;;;6113811;23;20009;-78
2024/03/24 00:52:32;;;;;;;7.95;3.50;;;5.50;99.90;;;;;;6089404;23;20009;-78
2024/03/24 00:54:59;;;;;;;9.88;4.85;;;5.50;99.90;;;;;;6114416;23;20009;-78
2024/03/24 00:57:26;;;;;;;8.13;5.15;;;5.50;99.90;;;;;;6088566;23;20013;-79
2024/03/24 00:59:52;;;;;;;9.15;4.15;;;5.50;99.90;;;;;;6090845;23;20013;-79
2024/03/24 01:02:19;;;;;;;7.10;4.22;;;5.50;99.90;;;;;;6089008;23;20359;-79
2024/03/24 01:04:45;;;;;;;9.15;4.38;;;5.50;99.90;;;;;;6113640;23;20009;-78
2024/03/24 01:07:13;;;;;;;9.40;4.70;;;5.50;99.90;;;;;;6175176;23;20457;-78
2024/03/24 01:09:39;;;;;;;9.15;5.15;;;5.50;99.90;;;;;;6113541;23;20438;-78
2024/03/24 01:12:07;;;;;;;12.70;6.20;;;5.50;99.90;;;;;;6112804;23;20016;-79
2024/03/24 01:14:33;;;;;;;7.35;4.18;;;5.50;99.90;;;;;;6175105;23;20446;-78
2024/03/24 01:17:01;;;;;;;10.63;4.72;;;5.50;99.90;;;;;;6113854;23;20397;-78
2024/03/24 01:19:28;;;;;;;12.00;5.13;;;5.40;99.90;;;;;;6148343;23;20374;-78
2024/03/24 01:21:54;;;;;;;9.50;5.07;;;5.50;99.90;;;;;;6111538;23;20012;-77
2024/03/24 01:24:21;;;;;;;10.23;4.82;;;5.50;99.90;;;;;;6124317;23;20338;-78
2024/03/24 01:26:47;;;;;;;8.60;5.15;;;5.50;99.90;;;;;;6123061;23;20012;-78
2024/03/24 01:29:13;;;;;;;8.07;4.43;;;5.50;99.90;;;;;;6137310;23;20012;-77
2024/03/24 01:31:40;;;;;;;8.20;5.20;;;5.50;99.90;;;;;;6147875;23;20009;-78
2024/03/24 01:34:06;;;;;;;10.52;6.30;;;5.50;99.90;;;;;;6138780;23;20017;-77
2024/03/24 01:36:32;;;;;;;6.07;4.85;;;5.50;99.90;;;;;;6138257;23;20013;-78
2024/03/24 01:38:59;;;;;;;9.60;5.78;;;5.50;99.90;;;;;;6113607;23;20013;-78
2024/03/24 01:41:27;;;;;;;12.25;5.30;;;5.50;99.90;;;;;;6113707;23;20488;-77
2024/03/24 01:43:55;;;;;;;13.27;8.82;;;5.50;99.90;;;;;;6114205;23;20338;-78
2024/03/24 01:46:22;;;;;;;9.30;6.45;;;5.50;99.90;;;;;;6123829;23;20005;-78
2024/03/24 01:48:48;;;;;;;13.20;6.82;;;5.50;99.90;;;;;;6088319;23;20005;-77
2024/03/24 01:51:15;;;;;;;9.88;6.28;;;5.50;99.90;;;;;;6123701;23;20012;-79
2024/03/24 01:53:42;;;;;;;16.08;7.35;;;5.50;99.90;;;;;;6088287;23;20020;-79
2024/03/24 01:56:09;;;;;;;11.85;8.13;;;5.50;99.90;;;;;;6146784;23;20019;-78
2024/03/24 01:58:37;;;;;;;9.55;6.68;;;5.50;99.90;;;;;;6138131;23;20347;-78
2024/03/24 02:01:05;;;;;;;12.25;7.63;;;5.50;99.90;;;;;;6175416;23;20016;-78
2024/03/24 02:03:35;;;;;;;13.52;10.02;;;5.50;99.90;;;;;;6139938;23;20012;-77
2024/03/24 02:06:01;;;;;;;12.02;8.10;;;5.40;99.90;;;;;;6114321;23;20009;-78
2024/03/24 02:08:29;;;;;;;11.43;7.78;;;5.50;99.90;;;;;;6148512;23;20001;-78
2024/03/24 02:10:56;;;;;;;9.07;7.18;;;5.50;99.90;;;;;;6113557;23;20437;-78
2024/03/24 02:13:23;;;;;;;10.98;7.25;;;5.50;99.90;;;;;;6111927;23;20013;-78
2024/03/24 02:15:50;;;;;;;10.30;7.05;;;5.50;99.90;;;;;;6148886;23;20017;-78
2024/03/24 02:18:16;;;;;;;14.40;7.55;;;5.50;99.90;;;;;;6137552;23;20009;-78
2024/03/24 02:20:43;;;;;;;9.82;7.55;;;5.50;99.90;;;;;;6175224;23;20002;-78
2024/03/24 02:23:09;;;;;;;13.70;8.38;;;5.50;99.90;;;;;;6114061;23;20009;-78
2024/03/24 02:25:36;;;;;;;9.27;7.30;;;5.50;99.90;;;;;;6114134;23;20005;-78
2024/03/24 02:28:03;;;;;;;11.57;6.18;;;5.60;99.90;;;;;;6173846;23;20008;-78
2024/03/24 02:30:29;;;;;;;11.40;7.40;;;5.60;99.90;;;;;;6138306;23;20005;-78
2024/03/24 02:32:56;;;;;;;9.63;7.32;;;5.60;99.90;;;;;;6112247;23;20024;-77
2024/03/24 02:35:25;;;;;;;12.93;9.25;;;5.70;99.90;;;;;;6148478;23;20008;-78
2024/03/24 02:37:52;;;;;;;14.35;7.57;;;5.70;99.90;;;;;;6113421;23;20025;-78
2024/03/24 02:40:18;;;;;;;11.82;7.68;;;5.70;99.90;;;;;;6123896;23;20016;-78
2024/03/24 02:42:44;;;;;;;11.40;7.35;;;5.70;99.90;;;;;;6113037;23;20013;-78
2024/03/24 02:45:11;;;;;;;10.00;6.85;;;5.70;99.90;;;;;;6147255;23;20005;-77
2024/03/24 02:47:39;;;;;;;14.82;7.35;;;5.70;99.90;;;;;;6112427;23;20053;-78
2024/03/24 02:50:06;;;;;;;15.25;7.82;;;5.70;99.90;;;;;;6089399;23;20016;-79
2024/03/24 02:52:33;;;;;;;14.73;6.57;;;5.70;99.90;;;;;;6147348;23;20555;-79
2024/03/24 02:54:59;;;;;;;12.50;7.45;;;5.70;99.90;;;;;;6089177;23;20361;-79
2024/03/24 02:57:26;;;;;;;10.25;4.32;;;5.70;99.90;;;;;;6112714;23;20017;-79
2024/03/24 02:59:53;;;;;;;5.75;2.33;;;5.70;99.90;;;;;;6089389;23;20005;-80
2024/03/24 03:02:19;;;;;;;5.65;1.60;;;5.60;99.90;;;;;;6112197;23;20540;-79
2024/03/24 03:04:46;;;;;;;5.93;1.90;;;5.60;99.90;;;;;;6123848;23;20022;-80
2024/03/24 03:07:13;;;;;;;7.82;2.30;;;5.50;99.90;;;;;;6088579;23;20012;-81
2024/03/24 03:09:39;;;;;;;2.60;1.52;;;5.50;99.90;;;;;;6112346;23;20287;-81
2024/03/24 03:12:06;;;;;;;5.18;2.03;;;5.50;99.90;;;;;;6146763;23;20028;-81
2024/03/24 03:14:32;;;;;;;7.38;2.92;;;5.40;99.90;;;;;;6088476;23;20207;-81
2024/03/24 03:16:59;;;;;;;5.13;2.70;;;5.40;99.90;;;;;;6112783;23;20535;-81
2024/03/24 03:19:25;;;;;;;4.85;3.20;;;5.50;99.90;;;;;;6148120;23;20005;-80
2024/03/24 03:21:52;;;;;;;10.02;5.00;;;5.50;99.90;;;;;;6114269;23;20009;-80
2024/03/24 03:24:18;;;;;;;7.35;4.88;;;5.50;99.90;;;;;;6090270;23;20214;-80
2024/03/24 03:26:45;;;;;;;7.50;4.90;;;5.50;99.90;;;;;;6114269;23;20345;-80
2024/03/24 03:29:11;;;;;;;10.07;5.43;;;5.60;99.90;;;;;;6145359;23;20008;-80
2024/03/24 03:31:38;;;;;;;7.60;4.68;;;5.60;99.90;;;;;;6089917;23;20017;-81
2024/03/24 03:34:05;;;;;;;7.00;4.57;;;5.70;99.90;;;;;;6114957;23;20461;-79
2024/03/24 03:36:33;;;;;;;9.88;5.50;;;5.70;99.90;;;;;;6139600;23;20020;-79
2024/03/24 03:38:59;;;;;;;8.18;4.57;;;5.70;99.90;;;;;;6149984;23;20020;-79
2024/03/24 03:41:25;;;;;;;10.75;4.55;;;5.80;99.90;;;;;;6114357;23;20005;-80
2024/03/24 03:43:52;;;;;;;7.75;4.60;;;5.80;99.90;;;;;;6090778;23;20005;-79
2024/03/24 03:46:18;;;;;;;5.88;3.85;;;5.80;99.90;;;;;;6114840;23;20005;-80
2024/03/24 03:48:45;;;;;;;8.27;4.95;;;5.80;99.90;;;;;;6114974;23;20475;-80
2024/03/24 03:51:17;;;;;;;7.35;4.00;;;5.80;99.90;;;;;;6147633;23;20013;-81
2024/03/24 03:53:44;;;;;;;;;;;5.80;99.90;;;;;;6114900;23;20016;-82
2024/03/24 03:56:10;;;;;;;6.97;2.95;;;5.80;99.90;;;;;;6089489;23;20559;-82
2024/03/24 03:58:37;;;;;;;5.00;2.40;;;5.70;99.90;;;;;;6090199;23;20012;-82
2024/03/24 04:01:03;;;;;;;7.32;2.60;;;5.70;99.90;;;;;;6149419;23;20382;-80
2024/03/24 04:03:32;;;;;;;5.55;1.70;;;5.60;99.90;;;;;;6112860;23;20016;-82
2024/03/24 04:06:03;;;;;;;6.90;1.80;;;5.60;99.90;;;;;;6114668;23;20429;-81
2024/03/24 04:08:30;;;;;;;4.70;0.93;;;5.50;99.90;;;;;;6138370;23;20017;-80
2024/03/24 04:10:56;;;;;;;1.25;0.40;;;5.40;99.90;;;;;;6091348;23;20464;-81
2024/03/24 04:13:22;;;;;;;3.00;0.60;;;5.30;99.90;;;;;;6090556;23;20012;-81
2024/03/24 04:15:48;;;;;;;1.80;0.45;;;5.30;99.90;;;;;;6113893;23;20020;-80
2024/03/24 04:18:15;;;;;;;3.42;0.60;;;5.20;99.90;;;;;;6148592;23;20016;-82
2024/03/24 04:20:42;;;;;;;3.70;0.80;;;5.20;99.90;;;;;;6139659;23;20009;-82
2024/03/24 04:23:08;;;;;;;3.85;0.70;;;5.20;99.90;;;;;;6090134;23;20028;-82
2024/03/24 04:25:34;;;;;;;2.78;0.60;;;5.10;99.90;;;;;;6092156;23;20791;-82
2024/03/24 04:28:01;;;;;;;3.05;1.00;;;5.10;99.90;;;;;;6114668;23;20013;-83
2024/03/24 04:30:32;;;;;;;1.65;0.70;;;5.00;99.90;;;;;;6140251;23;20009;-82
2024/03/24 04:32:59;;;;;;;3.03;0.52;;;5.00;99.90;;;;;;6176044;23;20009;-82
2024/03/24 04:35:26;;;;;;;4.13;1.05;;;5.00;99.90;;;;;;6148283;23;20013;-81
2024/03/24 04:37:52;;;;;;;2.13;0.73;;;5.00;99.90;;;;;;6088295;23;20854;-80
2024/03/24 04:40:19;;;;;;;3.17;0.88;;;5.00;99.90;;;;;;6112245;23;20405;-83
2024/03/24 04:42:45;;;;;;;3.17;1.15;;;5.00;99.90;;;;;;6122312;23;20338;-82
2024/03/24 04:45:12;;;;;;;2.83;0.73;;;4.90;99.90;;;;;;6113636;23;20005;-80
2024/03/24 04:47:38;;;;;;;1.98;0.70;;;4.90;99.90;;;;;;6087653;23;20013;-81
2024/03/24 04:50:07;;;;;;;2.95;1.08;;;4.90;99.90;;;;;;6175450;23;20023;-81
2024/03/24 04:52:33;;;;;;;3.55;1.05;;;4.90;99.90;;;;;;6138019;23;20005;-82
2024/03/24 04:55:00;;;;;;;3.47;1.38;;;4.90;99.90;;;;;;6113949;23;20356;-80
2024/03/24 04:57:27;;;;;;;5.05;0.90;;;4.80;99.90;;;;;;6089428;23;20534;-81
2024/03/24 04:59:54;;;;;;;4.53;1.50;;;4.80;99.90;;;;;;6115086;23;20016;-80
2024/03/24 05:02:20;;;;;;;3.25;1.00;;;4.80;99.90;;;;;;6138206;23;20009;-79
2024/03/24 05:04:50;;;;;;;1.95;0.90;;;4.70;99.90;;;;;;6115248;23;20036;-80
2024/03/24 05:07:17;;;;;;;3.50;0.80;;;4.70;99.90;;;;;;6114518;23;20012;-80
2024/03/24 05:09:43;;;;;;;3.15;1.50;;;4.70;99.90;;;;;;6088496;23;20017;-80
2024/03/24 05:12:10;;;;;;;1.90;0.90;;;4.60;99.90;;;;;;6087065;23;20214;-80
2024/03/24 05:14:36;;;;;;;3.28;1.10;;;4.60;99.90;;;;;;6123553;23;20229;-80
2024/03/24 05:17:03;;;;;;;3.42;1.42;;;4.60;99.90;;;;;;6147759;23;20013;-80
2024/03/24 05:19:32;;;;;;;3.47;1.02;;;4.60;99.90;;;;;;6174174;23;20745;-80
2024/03/24 05:21:59;;;;;;;3.45;1.13;;;4.60;99.90;;;;;;6136301;23;20017;-80
2024/03/24 05:24:27;;;;;;;2.72;1.33;;;4.60;99.90;;;;;;6113896;23;20221;-80
2024/03/24 05:26:53;;;;;;;6.53;1.30;;;4.60;99.90;;;;;;6148637;23;20393;-80
2024/03/24 05:29:20;;;;;;;3.53;1.20;;;4.60;99.90;;;;;;6140120;23;20009;-80
2024/03/24 05:31:57;;;;;;;3.67;1.17;;;4.60;99.90;;;;;;6151383;23;20634;-79
2024/03/24 05:34:25;;;;;;;3.55;1.17;;;4.50;99.90;;;;;;6117426;23;20338;-79
2024/03/24 05:36:52;;;;;;;3.33;1.13;;;4.50;99.90;;;;;;6151937;23;20040;-79
2024/03/24 05:39:20;;;;;;;3.90;1.08;;;4.50;99.90;;;;;;6092008;23;20016;-79
2024/03/24 05:41:50;;;;;;;4.32;1.15;;;4.50;99.90;;;;;;6122834;23;20012;-79
2024/03/24 05:44:17;;;;;;;4.13;1.25;;;4.50;99.90;;;;;;6137714;23;20005;-79
2024/03/24 05:46:43;;;;;;;3.78;0.82;;;4.50;99.90;;;;;;6113203;23;20009;-79
2024/03/24 05:49:10;;;;;;;5.57;1.10;;;4.50;99.90;;;;;;6112022;23;20833;-79
2024/03/24 05:51:37;;;;;;;2.17;0.82;;;4.50;99.90;;;;;;6172976;23;20028;-79
2024/03/24 05:54:05;;;;;;;3.15;1.10;;;4.50;99.90;;;;;;6088902;23;20517;-79
2024/03/24 05:56:32;;;;;;;4.10;1.55;;;4.50;99.90;;;;;;6113711;23;20017;-79
2024/03/24 05:58:58;;;;;;;5.32;1.27;;;4.50;99.90;;;;;;6113727;23;20016;-79
2024/03/24 06:01:25;;;;;;;3.80;1.50;;;4.60;99.90;;;;;;6122682;23;20013;-79
2024/03/24 06:03:51;;;;;;;4.75;1.67;;;4.70;99.90;;;;;;6113994;23;20009;-79
2024/03/24 06:06:18;;;;;;;8.43;2.72;;;4.80;99.90;;;;;;6089728;23;20009;-78
2024/03/24 06:08:45;;;;;;;5.65;2.03;;;4.80;99.90;;;;;;6090290;23;20013;-79
2024/03/24 06:11:11;;;;;;;8.95;3.15;;;4.90;99.90;;;;;;6113496;23;20012;-83
2024/03/24 06:13:37;;;;;;;10.50;3.00;;;4.90;99.90;;;;;;6114412;23;20013;-82
2024/03/24 06:16:04;;;;;;;10.80;3.05;;;5.00;99.90;;;;;;6114786;23;20324;-81
2024/03/24 06:18:31;;;;;;;12.10;2.90;;;5.00;99.90;;;;;;6090504;23;20005;-84
2024/03/24 06:20:57;;;;;;;7.22;3.58;;;5.00;99.90;;;;;;6089977;23;20009;-83
2024/03/24 06:23:23;;;;;;;10.45;3.10;;;5.00;99.90;;;;;;6115245;23;20009;-83
2024/03/24 06:25:49;;;;;;;6.25;2.50;;;5.00;99.90;;;;;;6089671;23;20024;-82
2024/03/24 06:28:16;;;;;;;9.75;2.50;;;5.00;99.90;;;;;;6148680;23;20005;-81
2024/03/24 06:30:43;;;;;;;8.23;2.25;;;5.00;99.90;;;;;;6089439;23;20013;-81
2024/03/24 06:33:09;;;;;;;9.55;2.55;;;5.10;99.90;;;;;;6149031;23;20009;-82
2024/03/24 06:35:35;;;;;;;8.32;2.75;;;5.10;99.90;;;;;;6135429;23;20009;-81
2024/03/24 06:38:02;;;;;;;7.18;2.72;;;5.10;99.90;;;;;;6135851;23;20453;-82
2024/03/24 06:40:28;;;;;;;11.40;2.72;;;5.10;99.90;;;;;;6123241;23;20698;-80
2024/03/24 06:43:02;;;;;;;8.48;2.22;;;5.20;99.90;;;;;;6136470;23;20020;-81
2024/03/24 06:45:34;;;;;;;8.95;2.17;;;5.20;99.90;;;;;;6113828;23;20235;-82
2024/03/24 06:48:02;;;;;;;12.52;3.80;;;5.20;99.90;;;;;;6087609;23;20012;-82
2024/03/24 06:50:29;;;;;;;8.77;2.97;;;5.20;99.90;;;;;;6111994;23;20012;-81
2024/03/24 06:52:56;;;;;;;7.28;2.83;;;5.20;99.90;;;;;;6088678;23;20009;-81
2024/03/24 06:55:26;;;;;;;11.90;3.50;;;5.10;99.90;;;;;;6125868;23;20016;-81
2024/03/24 06:57:53;;;;;;;13.45;4.70;;;5.20;99.90;;;;;;6090813;23;20322;-82
2024/03/24 07:00:20;;;;;;;15.90;5.10;;;5.20;99.90;;;;;;6124566;23;20005;-80
2024/03/24 07:02:47;;;;;;;12.50;4.72;;;5.30;99.90;;;;;;6090032;23;20013;-81
2024/03/24 07:05:14;;;;;;;12.07;4.47;;;5.40;99.90;;;;;;6091072;23;20005;-81
2024/03/24 07:07:41;;;;;;;11.18;3.83;;;5.50;99.90;;;;;;6090831;23;20012;-81
2024/03/24 07:10:09;;;;;;;13.73;5.00;;;5.60;99.90;;;;;;6124997;23;20032;-80
2024/03/24 07:12:35;;;;;;;10.60;4.53;;;5.60;99.90;;;;;;6112944;23;20043;-81
2024/03/24 07:15:02;;;;;;;9.23;4.25;;;5.70;99.90;;;;;;6090184;23;20351;-82
2024/03/24 07:17:28;;;;;;;14.43;4.88;;;5.70;99.90;;;;;;6112452;23;20016;-81
2024/03/24 07:19:55;;;;;;;9.77;4.28;;;5.70;99.90;;;;;;6114601;23;20660;-82
2024/03/24 07:22:21;;;;;;;11.55;5.00;;;5.70;99.90;;;;;;6147152;23;20001;-83
2024/03/24 07:24:48;;;;;;;15.55;5.70;;;5.70;99.90;;;;;;6115023;23;20521;-81
2024/03/24 07:27:14;;;;;;;10.77;4.50;;;5.70;99.90;;;;;;6091642;23;20517;-81
2024/03/24 07:29:41;;;;;;;17.27;5.13;;;5.70;99.90;;;;;;6172786;23;20024;-80
2024/03/24 07:32:07;;;;;;;13.50;5.03;;;5.70;99.90;;;;;;6114811;23;20385;-81
2024/03/24 07:34:35;;;;;;;10.90;5.00;;;5.70;99.90;;;;;;6115473;23;20454;-81
2024/03/24 07:37:02;;;;;;;13.65;5.15;;;5.80;99.90;;;;;;6114789;23;20028;-82
2024/03/24 07:39:28;;;;;;;17.52;4.63;;;5.90;99.90;;;;;;6114925;23;20510;-82
2024/03/24 07:41:55;;;;;;;14.10;5.22;;;6.00;99.90;;;;;;6148453;23;20013;-85
2024/03/24 07:44:21;;;;;;;13.48;6.18;;;6.00;99.90;;;;;;6090511;23;20013;-82
2024/03/24 07:46:47;;;;;;;21.92;6.65;;;6.20;99.90;;;;;;6113347;23;20005;-82
2024/03/24 07:49:14;;;;;;;15.32;5.55;;;6.30;99.90;;;;;;6176686;23;20683;-82
2024/03/24 07:51:40;;;;;;;12.90;5.50;;;6.30;99.90;;;;;;6113913;23;20024;-81
2024/03/24 07:54:07;;;;;;;20.42;5.32;;;6.30;99.90;;;;;;6124516;23;20020;-82
2024/03/24 07:56:34;;;;;;;14.23;5.30;;;6.30;99.90;;;;;;6091792;23;20009;-83
2024/03/24 07:59:00;;;;;;;9.60;4.00;;;6.40;99.90;;;;;;6115552;23;20486;-81
2024/03/24 08:01:27;;;;;;;10.30;3.67;;;6.50;99.90;;;;;;6148308;23;20009;-81
2024/03/24 08:03:53;;;;;;;11.48;4.45;;;6.60;99.90;;;;;;6090695;23;20444;-83
2024/03/24 08:06:19;;;;;;;12.75;4.82;;;6.70;99.90;;;;;;6138458;23;20005;-85
2024/03/24 08:08:46;;;;;;;12.43;4.72;;;6.80;99.90;;;;;;6115077;23;20009;-83
2024/03/24 08:11:12;;;;;;;24.58;6.07;;;7.00;99.90;;;;;;6139801;23;20005;-82
2024/03/24 08:13:38;;;;;;;21.58;6.38;;;7.20;99.90;;;;;;6093747;23;20332;-80
2024/03/24 08:16:05;;;;;;;18.15;6.22;;;7.40;99.90;;;;;;6090356;23;20008;-81
2024/03/24 08:18:34;;;;;;;18.02;6.95;;;7.50;99.90;;;;;;6114160;23;20009;-82
2024/03/24 08:21:00;;;;;;;21.02;6.72;;;7.40;99.90;;;;;;6114363;23;20499;-83
2024/03/24 08:23:26;;;;;;;14.55;6.38;;;7.40;99.90;;;;;;6139190;23;20402;-82
2024/03/24 08:25:53;;;;;;;17.98;7.13;;;7.40;99.90;;;;;;6092253;23;20012;-83
2024/03/24 08:28:20;;;;;;;20.95;7.03;;;7.60;99.90;;;;;;6089897;23;20338;-84
2024/03/24 08:30:47;;;;;;;17.05;6.88;;;7.80;99.90;;;;;;6089635;23;20031;-83
2024/03/24 08:33:13;;;;;;;16.95;7.03;;;8.10;99.90;;;;;;6114580;23;20020;-83
2024/03/24 08:35:39;;;;;;;31.10;7.38;;;8.20;99.90;;;;;;6149238;23;20008;-82
2024/03/24 08:38:06;;;;;;;22.27;7.82;;;8.20;99.90;;;;;;6114086;23;20012;-83
2024/03/24 08:40:32;;;;;;;13.93;5.88;;;8.00;99.90;;;;;;6137555;23;20020;-83
2024/03/24 08:42:59;;;;;;;18.33;5.25;;;7.90;99.90;;;;;;6123324;23;20010;-81
2024/03/24 08:45:25;;;;;;;12.10;3.47;;;7.80;99.90;;;;;;6089759;23;20029;-83
2024/03/24 08:47:51;;;;;;;13.32;2.72;;;7.70;99.90;;;;;;6088999;23;20017;-83
2024/03/24 08:50:18;;;;;;;7.35;2.10;;;7.60;99.90;;;;;;6113107;23;20013;-84
2024/03/24 08:52:44;;;;;;;9.73;2.42;;;7.60;99.90;;;;;;6089958;23;20349;-81
2024/03/24 08:55:10;;;;;;;8.27;1.77;;;7.60;99.90;;;;;;6089572;23;20009;-80
2024/03/24 08:57:41;;;;;;;6.35;2.03;;;7.60;99.90;;;;;;6124206;23;20469;-83
2024/03/24 09:00:09;;;;;;;8.77;2.70;;;7.60;99.90;;;;;;6113669;23;20012;-81
2024/03/24 09:02:36;;;;;;;11.00;2.53;;;7.60;99.90;;;;;;6088034;23;20020;-83
2024/03/24 09:05:03;;;;;;;14.20;2.97;;;7.70;99.90;;;;;;6148801;23;20004;-85
2024/03/24 09:07:29;;;;;;;13.18;2.95;;;7.80;99.90;;;;;;6148099;23;20009;-84
2024/03/24 09:09:56;;;;;;;10.73;3.42;;;7.90;99.90;;;;;;6123290;23;20024;-82
2024/03/24 09:12:22;;;;;;;13.43;4.13;;;7.90;99.90;;;;;;6135969;23;20433;-82
2024/03/24 09:14:48;;;;;;;13.35;4.20;;;7.90;99.90;;;;;;6138260;23;20013;-84
2024/03/24 09:17:15;;;;;;;12.77;4.40;;;7.90;99.90;;;;;;6174558;23;20573;-84
2024/03/24 09:19:41;;;;;;;14.43;3.50;;;7.90;99.90;;;;;;6148217;23;20005;-83
2024/03/24 09:22:08;;;;;;;14.13;4.10;;;7.90;99.90;;;;;;6092222;23;20209;-82
2024/03/24 09:24:35;;;;;;;14.50;3.75;;;7.90;99.90;;;;;;6124596;23;20017;-84
2024/03/24 09:27:02;;;;;;;11.88;2.72;;;7.80;99.90;;;;;;6096998;23;20009;-80
2024/03/24 09:29:29;;;;;;;10.68;2.55;;;7.70;99.90;;;;;;6143228;23;20427;-84
2024/03/24 09:31:57;;;;;;;7.03;2.13;;;7.60;99.90;;;;;;6114914;23;20035;-83
2024/03/24 09:34:25;;;;;;;11.18;2.03;;;7.60;99.90;;;;;;6114328;23;20437;-81
2024/03/24 09:36:51;;;;;;;10.38;2.20;;;7.50;99.90;;;;;;6114366;23;20028;-82
2024/03/24 09:39:18;;;;;;;11.98;2.53;;;7.40;99.90;;;;;;6151827;23;20013;-84
2024/03/24 09:41:45;;;;;;;9.13;2.15;;;7.30;99.90;;;;;;6115284;23;20438;-82
2024/03/24 09:44:16;;;;;;;12.15;2.55;;;7.30;99.90;;;;;;6091001;23;20485;-82
2024/03/24 09:46:44;;;;;;;10.15;2.10;;;7.20;99.90;;;;;;6089817;23;20009;-80
2024/03/24 09:49:13;;;;;;;10.43;3.53;;;7.10;99.90;;;;;;6113817;23;20620;-86
2024/03/24 09:51:39;;;;;;;12.32;3.60;;;7.10;99.90;;;;;;6089358;23;20067;-81
2024/03/24 09:54:14;;;;;;;9.60;3.10;;;7.20;99.90;;;;;;6124675;23;20015;-83
2024/03/24 09:56:41;;;;;;;13.15;2.88;;;7.40;99.90;;;;;;6114026;23;20044;-84
2024/03/24 09:59:08;;;;;;;9.63;2.53;;;7.50;99.90;;;;;;6115179;23;20978;-84
2024/03/24 10:01:40;;;;;;;11.05;2.38;;;7.40;99.90;;;;;;6114045;23;20020;-81
2024/03/24 10:04:06;;;;;;;8.93;2.05;;;7.40;99.90;;;;;;6090871;23;20009;-82
2024/03/24 10:06:34;;;;;;;8.95;2.15;;;7.30;99.90;;;;;;6113753;23;20009;-82
2024/03/24 10:09:02;;;;;;;7.10;1.70;;;7.20;99.90;;;;;;6115082;23;20333;-84
2024/03/24 10:11:32;;;;;;;9.23;1.80;;;7.10;99.90;;;;;;6089528;23;20009;-82
2024/03/24 10:14:04;;;;;;;7.35;1.08;;;6.90;99.90;;;;;;6138972;23;20013;-85
2024/03/24 10:16:31;;;;;;;6.68;0.98;;;7.00;99.90;;;;;;6089286;23;20032;-81
2024/03/24 10:19:08;;;;;;;7.38;1.70;;;7.00;99.90;;;;;;6113731;23;20016;-84
2024/03/24 10:21:35;;;;;;;6.53;1.48;;;7.10;99.90;;;;;;6088640;23;20792;-81
2024/03/24 10:24:01;;;;;;;11.70;1.55;;;7.40;99.90;;;;;;6114422;23;20183;-81
2024/03/24 10:26:29;;;;;;;8.75;2.13;;;7.80;99.90;;;;;;6123673;23;20200;-84
2024/03/24 10:28:55;;;;;;;9.85;1.65;;;8.00;99.90;;;;;;6115110;23;20051;-83
2024/03/24 10:31:21;;;;;;;11.70;1.73;;;8.20;99.90;;;;;;6089969;23;20013;-82
2024/03/24 10:33:48;;;;;;;9.57;1.30;;;8.20;99.90;;;;;;6115799;23;20009;-83
2024/03/24 10:36:15;;;;;;;9.40;1.25;;;8.20;99.90;;;;;;6139260;23;20009;-86
2024/03/24 10:38:42;;;;;;;11.68;1.63;;;8.10;99.90;;;;;;6138961;23;20330;-83
2024/03/24 10:41:08;;;;;;;8.13;1.40;;;8.10;99.90;;;;;;6090052;23;20020;-85
2024/03/24 10:43:35;;;;;;;8.00;0.95;;;8.10;99.90;;;;;;6091101;23;20020;-84
2024/03/24 10:46:01;;;;;;;11.52;1.60;;;8.10;99.90;;;;;;6114880;23;20013;-82
2024/03/24 10:48:35;;;;;;;6.72;1.38;;;8.40;99.90;;;;;;6114883;23;20446;-81
2024/03/24 10:51:07;;;;;;;9.45;1.65;;;8.70;99.90;;;;;;6089911;23;20790;-80
2024/03/24 10:53:33;;;;;;;8.23;1.90;;;8.80;99.90;;;;;;6089792;23;20354;-80
2024/03/24 10:56:01;;;;;;;13.60;1.60;;;8.80;99.90;;;;;;6114436;23;20012;-84
2024/03/24 10:58:28;;;;;;;13.52;1.98;;;8.80;99.90;;;;;;6090652;23;20028;-85
2024/03/24 11:00:57;;;;;;;9.45;1.55;;;8.90;99.90;;;;;;6125846;23;20005;-80
2024/03/24 11:03:24;;;;;;;20.67;1.90;;;8.90;99.90;;;;;;6090605;23;20500;-80
2024/03/24 11:05:52;;;;;;;14.10;2.95;;;8.90;99.90;;;;;;6116969;23;20009;-84
2024/03/24 11:08:20;;;;;;;11.35;2.42;;;8.90;99.90;;;;;;6116233;23;20009;-81
2024/03/24 11:10:56;;;;;;;14.25;1.65;;;9.00;99.90;;;;;;6093536;23;20012;-83
2024/03/24 11:13:27;;;;;;;12.60;1.70;;;9.00;99.90;;;;;;6090988;23;20012;-82
2024/03/24 11:15:53;;;;;;;13.98;2.35;;;9.00;99.90;;;;;;6140585;23;20036;-84
2024/03/24 11:18:24;;;;;;;10.20;1.95;;;9.00;99.90;;;;;;6124795;23;20009;-83
2024/03/24 11:20:52;;;;;;;12.35;1.67;;;9.00;99.90;;;;;;6089054;23;20108;-83
2024/03/24 11:23:19;;;;;;;14.25;2.13;;;9.10;99.90;;;;;;6141408;23;20009;-85
2024/03/24 11:26:04;;;;;;;8.80;2.33;;;9.30;99.90;;;;;;6093242;23;20020;-83
2024/03/24 11:28:43;;;;;;;10.40;1.92;;;9.50;99.90;;;;;;6115836;23;20013;-81
2024/03/24 11:31:20;;;;;;;12.10;2.33;;;9.70;99.90;;;;;;6091043;23;20009;-81
2024/03/24 11:34:05;;;;;;;14.25;2.28;;;9.70;99.90;;;;;;6125612;23;20485;-80
2024/03/24 11:36:34;;;;;;;13.55;2.35;;;9.80;99.90;;;;;;6176052;23;20008;-82
2024/03/24 11:39:05;;;;;;;15.60;1.75;;;10.00;99.90;;;;;;6093498;23;20007;-80
2024/03/24 11:41:32;;;;;;;12.30;2.03;;;10.00;99.90;;;;;;6138039;23;20005;-79
2024/03/24 11:44:02;;;;;;;16.23;1.70;;;9.90;99.90;;;;;;6139971;23;20005;-81
2024/03/24 11:46:30;;;;;;;13.15;2.33;;;9.70;99.90;;;;;;6148662;23;20009;-79
2024/03/24 11:48:58;;;;;;;11.48;1.73;;;9.50;99.90;;;;;;6091093;23;20017;-82
2024/03/24 11:51:25;;;;;;;14.20;1.90;;;9.50;99.90;;;;;;6137435;23;20025;-84
2024/03/24 11:53:54;;;;;;;14.10;1.85;;;9.40;99.90;;;;;;6090359;23;20024;-82
2024/03/24 11:56:21;;;;;;;11.00;1.73;;;9.30;99.90;;;;;;6114089;23;20013;-79
2024/03/24 11:58:53;;;;;;;14.88;2.10;;;9.20;99.90;;;;;;6148275;23;20013;-83
2024/03/24 12:01:20;;;;;;;12.52;1.58;;;9.30;99.90;;;;;;6113713;23;20009;-80
2024/03/24 12:03:47;;;;;;;14.32;2.08;;;9.60;99.90;;;;;;6177140;23;20004;-83
2024/03/24 12:06:15;;;;;;;13.45;1.60;;;9.80;99.90;;;;;;6150165;23;20027;-83
2024/03/24 12:08:44;;;;;;;9.93;1.38;;;9.90;99.90;;;;;;6090421;23;20012;-79
2024/03/24 12:11:11;;;;;;;15.35;3.05;;;9.70;99.90;;;;;;6114688;23;20452;-81
2024/03/24 12:13:38;;;;;;;8.88;1.33;;;9.50;99.90;;;;;;6149402;23;20005;-80
2024/03/24 12:16:05;;;;;;;10.10;1.48;;;9.30;99.90;;;;;;6138778;23;20013;-81
2024/03/24 12:18:31;;;;;;;9.95;2.03;;;9.30;99.90;;;;;;6113638;23;20009;-79
2024/03/24 12:21:02;;;;;;;11.10;2.13;;;9.40;99.90;;;;;;6114653;23;20005;-80
2024/03/24 12:23:29;;;;;;;10.80;1.40;;;9.70;99.90;;;;;;6113201;23;20413;-84
2024/03/24 12:25:56;;;;;;;11.75;1.80;;;10.10;99.90;;;;;;6121361;23;20008;-82
2024/03/24 12:28:22;;;;;;;12.38;1.90;;;10.70;99.90;;;;;;6085311;23;20013;-80
2024/03/24 12:30:54;;;;;;;9.27;1.10;;;11.50;99.90;;;;;;6085110;23;20020;-80
2024/03/24 12:33:22;;;;;;;6.82;0.98;;;12.50;99.90;;;;;;6169960;23;20005;-80
2024/03/24 12:35:49;;;;;;;6.75;1.00;;;13.20;99.90;;;;;;6120267;23;20450;-82
2024/03/24 12:38:17;;;;;;;9.93;1.30;;;13.80;99.90;;;;;;6170778;23;20024;-81
2024/03/24 12:40:50;;;;;;;7.07;1.00;;;13.70;99.90;;;;;;6109636;23;20488;-81
2024/03/24 12:43:17;;;;;;;8.75;1.23;;;13.90;99.90;;;;;;6086497;23;20116;-81
2024/03/24 12:45:53;;;;;;;7.65;1.13;;;14.10;99.90;;;;;;6146694;23;20009;-82
2024/03/24 12:48:20;;;;;;;8.05;1.25;;;14.00;99.90;;;;;;6087770;23;20009;-84
2024/03/24 12:50:47;;;;;;;10.18;0.98;;;13.60;99.90;;;;;;6134264;23;20016;-84
2024/03/24 12:53:54;;;;;;;8.77;0.98;;;13.20;99.90;;;;;;6145514;23;20008;-80